Terminal Aerodrome Forecast
Issued by NWS

Home | Current Version | Previous Version | Text Only | Print | Product List | Glossary On
Versions: 1 2 3 4 5 6 7 8 9 10 11 12 13 14 15 16 17 18 19 20 21 22 23 24 25 26 27 28
000
FTAK31 PANC 301138
TAFADL
TAF
PADL 301138Z 3012/3112 18008KT P6SM SCT030 SCT100 BKN250
      TEMPO 3012/3014 VRB03KT SCT003 BKN060
     FM301400 VRB03KT P6SM SCT035 BKN060
     FM302000 14007KT P6SM SCT035 BKN060
     FM302200 16007KT P6SM VCSH SCT035 BKN060
      AMD LTD TO CLD VIS AND WIND TIL 301600=

USA.gov is the U.S. government's official web portal to all federal, state and local government web resources and services.